Time;durP1;ratioP1;P1;durP2;ratioP2;P2;SDS_P1;SDS_P2;PMS_P1;PMS_P2;Temp;Humidity;BMP_temperature;BMP_pressure;BME280_temperature;BME280_humidity;BME280_pressure;Samples;Min_cycle;Max_cycle;Signal;HPM_P1;HPM_P2
2021/09/25 00:01:13;;;;;;;65.90;27.42;;;15.70;99.90;;;14.57;100.00;100650.66;4994111;28;20033;-76
2021/09/25 00:03:39;;;;;;;60.22;26.48;;;15.70;99.90;;;14.54;100.00;100656.97;5006341;28;20026;-76
2021/09/25 00:06:06;;;;;;;58.70;25.83;;;15.70;99.90;;;14.53;100.00;100673.81;5005045;28;20014;-76
2021/09/25 00:08:32;;;;;;;63.22;26.10;;;15.70;99.90;;;14.51;100.00;100673.09;5025916;28;20038;-76
2021/09/25 00:10:58;;;;;;;61.22;26.10;;;15.70;99.90;;;14.49;100.00;100685.56;5002756;28;20488;-76
2021/09/25 00:13:24;;;;;;;71.60;28.10;;;15.70;99.90;;;14.48;100.00;100683.88;4983948;28;20092;-76
2021/09/25 00:15:50;;;;;;;63.60;26.65;;;15.70;99.90;;;14.48;100.00;100681.22;5000754;28;20041;-76
2021/09/25 00:18:16;;;;;;;62.65;28.05;;;15.60;99.90;;;14.47;100.00;100690.13;4999230;28;20045;-76
2021/09/25 00:20:42;;;;;;;62.28;26.75;;;15.60;99.90;;;14.47;100.00;100707.78;4999552;28;20033;-76
2021/09/25 00:23:11;;;;;;;63.28;28.15;;;15.60;99.90;;;14.44;100.00;100698.25;5004047;28;20037;-77
2021/09/25 00:25:37;;;;;;;74.93;28.80;;;15.60;99.90;;;14.45;100.00;100696.44;5000274;28;20091;-76
2021/09/25 00:28:04;;;;;;;68.60;27.42;;;15.60;99.90;;;14.42;100.00;100713.38;5001748;28;20037;-76
2021/09/25 00:30:30;;;;;;;75.43;28.98;;;15.60;99.90;;;14.41;100.00;100706.41;5000642;28;20053;-76
2021/09/25 00:32:56;;;;;;;70.45;29.95;;;15.60;99.90;;;14.42;100.00;100707.25;5001060;28;20022;-76
2021/09/25 00:35:22;;;;;;;71.38;30.25;;;15.60;99.90;;;14.41;100.00;100701.09;5015922;28;20119;-76
2021/09/25 00:37:48;;;;;;;76.97;30.10;;;15.60;99.90;;;14.41;100.00;100708.22;5008611;28;20041;-76
2021/09/25 00:40:17;;;;;;;68.47;29.00;;;15.60;99.90;;;14.39;100.00;100710.94;5008559;28;20053;-76
2021/09/25 00:42:45;;;;;;;70.22;30.08;;;15.50;99.90;;;14.38;100.00;100878.75;5000181;28;20049;-76
2021/09/25 00:45:13;;;;;;;71.85;28.80;;;15.50;99.90;;;14.38;100.00;100859.38;5016902;28;20033;-76
2021/09/25 00:47:39;;;;;;;65.38;26.70;;;15.50;99.90;;;14.37;100.00;100871.75;5008328;28;20145;-76
2021/09/25 00:50:08;;;;;;;71.43;27.83;;;15.50;99.90;;;14.38;100.00;100865.50;4985433;28;20048;-76
2021/09/25 00:52:34;;;;;;;77.15;28.40;;;15.50;99.90;;;14.38;100.00;100873.47;5001128;28;20436;-76
2021/09/25 00:55:00;;;;;;;74.60;29.08;;;15.60;99.90;;;14.39;100.00;100877.81;5004197;28;20034;-77
2021/09/25 00:57:26;;;;;;;72.32;27.80;;;15.50;99.90;;;14.39;100.00;100880.47;5006951;28;20046;-76
2021/09/25 00:59:53;;;;;;;67.00;28.38;;;15.50;99.90;;;14.38;100.00;100875.25;5003839;28;20048;-76
2021/09/25 01:02:20;;;;;;;64.82;27.10;;;15.50;99.90;;;14.37;100.00;100861.16;5022842;28;20038;-76
2021/09/25 01:04:48;;;;;;;67.30;28.05;;;15.50;99.90;;;14.36;100.00;100876.22;5013316;28;20111;-76
2021/09/25 01:07:14;;;;;;;61.20;26.60;;;15.50;99.90;;;14.38;100.00;100870.81;5009184;28;20900;-76
2021/09/25 01:09:41;;;;;;;66.07;27.73;;;15.50;99.90;;;14.36;100.00;100872.69;5023419;28;20113;-76
2021/09/25 01:12:08;;;;;;;62.28;27.58;;;15.50;99.90;;;14.34;100.00;100878.09;4999716;28;25240;-76
2021/09/25 01:14:35;;;;;;;68.20;28.17;;;15.50;99.90;;;14.33;100.00;100854.34;5001586;28;20104;-76
2021/09/25 01:17:12;;;;;;;67.70;29.40;;;15.50;99.90;;;14.32;100.00;100879.16;5000774;28;21977;-76
2021/09/25 01:19:42;;;;;;;64.43;27.13;;;15.50;99.90;;;14.30;100.00;100879.22;5007767;28;20103;-76
2021/09/25 01:22:10;;;;;;;61.85;26.17;;;15.50;99.90;;;14.31;100.00;100882.72;4987596;28;20128;-77
2021/09/25 01:24:37;;;;;;;65.97;27.05;;;15.50;99.90;;;14.32;100.00;100879.16;4983949;28;20026;-76
2021/09/25 01:27:05;;;;;;;67.20;26.77;;;15.50;99.90;;;14.34;100.00;100872.81;4983229;28;20033;-76
2021/09/25 01:29:32;;;;;;;60.30;26.33;;;15.50;99.90;;;14.38;100.00;100884.06;4997545;28;20462;-76
2021/09/25 01:31:58;;;;;;;69.70;27.33;;;15.50;99.90;;;14.40;100.00;100876.88;4991253;28;20038;-76
2021/09/25 01:34:24;;;;;;;64.63;26.33;;;15.60;99.90;;;14.41;100.00;100867.16;4986535;28;20173;-76
2021/09/25 01:36:51;;;;;;;62.60;25.13;;;15.60;99.90;;;14.41;100.00;100862.69;4980260;28;20095;-77
2021/09/25 01:39:18;;;;;;;54.80;23.27;;;15.60;99.90;;;14.41;100.00;100875.09;5001007;28;20053;-77
2021/09/25 01:41:44;;;;;;;55.45;24.48;;;15.60;99.90;;;14.39;100.00;100875.19;5002656;28;20038;-76
2021/09/25 01:44:10;;;;;;;52.78;23.80;;;15.60;99.90;;;14.39;100.00;100874.34;5005888;28;20029;-77
2021/09/25 01:46:36;;;;;;;49.92;22.90;;;15.50;99.90;;;14.39;100.00;100890.22;4980144;28;20385;-77
2021/09/25 01:49:03;;;;;;;54.38;23.75;;;15.50;99.90;;;14.35;100.00;100900.16;4998847;28;20030;-77
2021/09/25 01:51:30;;;;;;;47.13;21.80;;;15.50;99.90;;;14.34;100.00;100904.59;4993464;28;20112;-77
2021/09/25 01:53:56;;;;;;;47.75;21.85;;;15.50;99.90;;;14.32;100.00;100921.53;5013659;28;20044;-77
2021/09/25 01:56:22;;;;;;;49.28;22.90;;;15.00;99.90;;;14.32;100.00;100932.97;4999702;28;20044;-76
2021/09/25 01:58:48;;;;;;;44.33;21.85;;;15.50;99.90;;;14.31;100.00;100948.94;4991505;28;20478;-77
2021/09/25 02:01:14;;;;;;;50.33;21.98;;;15.50;99.90;;;14.29;100.00;100958.78;5001283;28;20041;-77
2021/09/25 02:03:41;;;;;;;51.50;22.02;;;15.40;99.90;;;14.28;100.00;100979.13;5001219;28;20033;-76
2021/09/25 02:06:10;;;;;;;47.80;21.73;;;15.50;99.90;;;14.27;100.00;100955.34;4999215;28;20034;-77
2021/09/25 02:08:38;;;;;;;48.67;20.80;;;15.40;99.90;;;14.26;100.00;100958.97;5003693;28;20025;-77
2021/09/25 02:11:06;;;;;;;48.58;21.80;;;15.40;99.90;;;14.26;100.00;100951.03;5006906;28;20616;-77
2021/09/25 02:13:32;;;;;;;42.88;21.33;;;15.40;99.90;;;14.24;100.00;100947.59;5000783;28;20129;-77
2021/09/25 02:15:59;;;;;;;47.55;20.90;;;15.40;99.90;;;14.23;100.00;100945.88;5000150;28;20022;-77
2021/09/25 02:18:26;;;;;;;42.15;20.05;;;15.40;99.90;;;14.23;100.00;100927.34;5000830;28;20095;-76
2021/09/25 02:20:54;;;;;;;42.08;20.45;;;15.40;99.90;;;14.21;100.00;100927.47;4996730;28;20559;-77
2021/09/25 02:23:21;;;;;;;41.05;19.55;;;15.40;99.90;;;14.20;100.00;100931.03;4975808;28;20026;-77
2021/09/25 02:25:47;;;;;;;45.58;19.80;;;15.40;99.90;;;14.20;100.00;100938.13;4999814;28;20034;-76
2021/09/25 02:28:13;;;;;;;41.78;20.25;;;15.40;99.90;;;14.20;100.00;100943.44;4996420;28;20164;-76
2021/09/25 02:30:40;;;;;;;41.35;18.92;;;15.40;99.90;;;14.20;100.00;100961.97;5000752;28;20022;-76
2021/09/25 02:33:06;;;;;;;44.72;19.80;;;15.40;99.90;;;14.20;100.00;100959.31;5016710;28;20041;-77
2021/09/25 02:35:32;;;;;;;43.22;18.38;;;15.40;99.90;;;14.20;100.00;100976.06;5007270;28;20033;-76
2021/09/25 02:37:58;;;;;;;40.85;18.73;;;15.40;99.90;;;14.21;100.00;100982.19;4981564;28;20429;-77
2021/09/25 02:40:24;;;;;;;40.67;17.90;;;15.40;99.90;;;14.21;100.00;100908.03;5002496;28;20055;-76
2021/09/25 02:42:52;;;;;;;40.15;17.80;;;15.40;99.90;;;14.22;100.00;100954.78;4998849;28;20152;-76
2021/09/25 02:45:19;;;;;;;41.70;16.27;;;15.40;99.90;;;14.21;100.00;100948.66;4986120;28;20034;-76
2021/09/25 02:47:46;;;;;;;31.33;15.95;;;15.40;99.90;;;14.25;100.00;100936.06;5001559;28;20033;-76
2021/09/25 02:50:16;;;;;;;34.03;16.02;;;15.40;99.90;;;14.24;100.00;100929.06;4993944;28;20493;-76
2021/09/25 02:52:43;;;;;;;39.00;16.73;;;15.40;99.90;;;14.23;100.00;100935.28;4984385;28;20034;-76
2021/09/25 02:55:11;;;;;;;32.75;17.08;;;15.40;99.90;;;14.22;100.00;100930.94;4996837;28;20056;-76
2021/09/25 02:57:37;;;;;;;33.13;16.20;;;15.40;99.90;;;14.24;100.00;100937.00;4998101;28;20041;-77
2021/09/25 03:00:14;;;;;;;37.55;17.63;;;15.40;99.90;;;14.26;100.00;100913.94;4999207;28;20029;-76
2021/09/25 03:02:40;;;;;;;32.47;16.17;;;15.40;99.90;;;14.27;100.00;100891.78;4999897;28;20171;-76
2021/09/25 03:05:07;;;;;;;36.42;16.20;;;15.40;99.90;;;14.27;100.00;100881.19;5012295;28;20505;-76
2021/09/25 03:07:34;;;;;;;33.55;17.27;;;15.40;99.90;;;14.27;100.00;100886.50;5011250;28;20045;-76
2021/09/25 03:10:00;;;;;;;33.85;16.10;;;15.40;99.90;;;14.26;100.00;100879.50;5002906;28;20504;-76
2021/09/25 03:12:26;;;;;;;32.03;16.33;;;15.40;99.90;;;14.23;100.00;100874.38;5005166;28;20048;-76
2021/09/25 03:14:53;;;;;;;35.13;16.50;;;15.40;99.90;;;14.21;100.00;100874.50;5011952;28;20025;-76
2021/09/25 03:17:19;;;;;;;32.22;16.10;;;15.40;99.90;;;14.22;100.00;100883.28;5004856;28;20089;-76
2021/09/25 03:19:46;;;;;;;33.63;15.80;;;15.40;99.90;;;14.20;100.00;100920.44;4996440;28;20112;-76
2021/09/25 03:22:15;;;;;;;34.10;15.98;;;15.40;99.90;;;14.21;100.00;100892.16;5010553;28;20033;-76
2021/09/25 03:24:42;;;;;;;35.10;15.80;;;15.40;99.90;;;14.19;100.00;100894.91;5003503;28;20417;-76
2021/09/25 03:27:08;;;;;;;34.85;16.92;;;15.40;99.90;;;14.21;100.00;100897.44;4998903;28;20030;-76
2021/09/25 03:29:34;;;;;;;31.00;15.82;;;15.40;99.90;;;14.21;100.00;100893.03;5002124;28;20026;-76
2021/09/25 03:32:00;;;;;;;35.45;15.52;;;15.40;99.90;;;14.22;100.00;100878.84;4994458;28;20092;-76
2021/09/25 03:34:26;;;;;;;30.65;14.95;;;15.40;99.90;;;14.22;100.00;100865.59;5008543;28;20503;-76
2021/09/25 03:36:53;;;;;;;33.53;15.43;;;15.40;99.90;;;14.24;100.00;100862.84;4995597;28;20042;-76
2021/09/25 03:39:19;;;;;;;26.33;15.02;;;15.40;99.90;;;14.24;100.00;100865.50;4993126;28;20040;-76
2021/09/25 03:41:47;;;;;;;30.45;15.10;;;15.40;99.90;;;14.24;100.00;100865.50;5004621;28;20502;-76
2021/09/25 03:44:13;;;;;;;29.17;14.63;;;15.40;99.90;;;14.22;100.00;100862.94;4991010;28;20429;-76
2021/09/25 03:46:39;;;;;;;29.45;15.20;;;15.40;99.90;;;14.24;100.00;100849.63;4993558;28;20025;-76
2021/09/25 03:49:05;;;;;;;29.15;15.38;;;15.40;99.90;;;14.23;100.00;100845.25;4986399;28;20026;-76
2021/09/25 03:51:32;;;;;;;34.67;16.05;;;15.40;99.90;;;14.25;100.00;100846.00;5003671;28;20385;-76
2021/09/25 03:53:58;;;;;;;29.50;14.60;;;15.40;99.90;;;14.24;100.00;100837.22;4971296;28;24958;-76
2021/09/25 03:56:24;;;;;;;29.02;14.90;;;15.40;99.90;;;14.25;100.00;100840.72;5002165;28;20057;-76
2021/09/25 03:58:50;;;;;;;30.75;15.27;;;15.40;99.90;;;14.23;100.00;100843.44;5000569;28;20021;-76
2021/09/25 04:01:17;;;;;;;32.42;14.88;;;15.40;99.90;;;14.23;100.00;100850.53;4993335;28;20018;-76
2021/09/25 04:03:44;;;;;;;34.50;14.93;;;15.40;99.90;;;14.25;100.00;100846.84;5002281;28;20065;-76
2021/09/25 04:06:11;;;;;;;29.67;15.23;;;15.50;99.90;;;14.26;100.00;100845.09;5003293;28;20116;-76
2021/09/25 04:08:37;;;;;;;27.73;15.23;;;15.40;99.90;;;14.25;100.00;100846.84;4986121;28;20101;-76
2021/09/25 04:11:03;;;;;;;31.95;16.38;;;15.40;99.90;;;14.22;100.00;100840.91;5009264;28;20030;-76
2021/09/25 04:13:29;;;;;;;31.65;15.82;;;15.40;99.90;;;14.20;100.00;100841.00;4991738;28;20021;-76
2021/09/25 04:15:55;;;;;;;29.33;14.98;;;15.40;99.90;;;14.19;100.00;100844.59;5000497;28;20603;-76
2021/09/25 04:18:21;;;;;;;27.23;15.20;;;15.40;99.90;;;14.18;100.00;100849.97;4992573;28;20041;-76
2021/09/25 04:20:47;;;;;;;28.83;15.35;;;15.40;99.90;;;14.16;100.00;100861.50;4986053;28;21812;-76
2021/09/25 04:23:13;;;;;;;32.70;15.63;;;15.40;99.90;;;14.18;100.00;100861.41;5018004;28;20022;-76
2021/09/25 04:25:39;;;;;;;31.92;15.35;;;15.40;99.90;;;14.19;100.00;100856.97;4997421;28;20030;-76
2021/09/25 04:28:08;;;;;;;27.40;13.85;;;15.40;99.90;;;14.16;100.00;100864.16;5009068;28;24330;-76
2021/09/25 04:30:40;;;;;;;29.63;14.48;;;15.40;99.90;;;14.17;100.00;100865.03;5010182;28;20448;-76
2021/09/25 04:33:10;;;;;;;30.02;14.45;;;15.40;99.90;;;14.15;100.00;100859.81;5012811;28;20076;-77
2021/09/25 04:35:38;;;;;;;26.90;14.15;;;15.40;99.90;;;14.18;100.00;100860.56;4997423;28;20428;-76
2021/09/25 04:38:05;;;;;;;27.95;15.18;;;15.40;99.90;;;14.20;100.00;100842.78;5001516;28;20046;-76
2021/09/25 04:40:32;;;;;;;31.02;13.85;;;15.40;99.90;;;14.23;100.00;100832.00;4998708;28;20057;-76
2021/09/25 04:43:00;;;;;;;32.13;14.13;;;15.40;99.90;;;14.25;100.00;100835.41;5002133;28;20374;-76
2021/09/25 04:45:27;;;;;;;20.60;12.38;;;15.40;99.90;;;14.25;100.00;100835.41;4982529;28;20025;-76
2021/09/25 04:47:53;;;;;;;24.65;13.73;;;15.40;99.90;;;14.25;100.00;100830.13;5001156;28;20030;-76
2021/09/25 04:50:20;;;;;;;32.70;14.40;;;15.40;99.90;;;14.27;100.00;100833.53;5024893;28;20026;-76
2021/09/25 04:52:47;;;;;;;26.13;13.10;;;15.40;99.90;;;14.26;100.00;100837.13;4993127;28;20085;-76
2021/09/25 04:55:13;;;;;;;33.88;13.85;;;15.40;99.90;;;14.27;100.00;100838.81;5001690;28;20030;-76
2021/09/25 04:57:39;;;;;;;29.38;13.10;;;15.50;99.90;;;14.27;100.00;100839.66;4993042;28;20064;-77
2021/09/25 05:00:07;;;;;;;35.45;14.05;;;15.50;99.90;;;14.30;100.00;100828.91;4994052;28;20112;-76
2021/09/25 05:02:34;;;;;;;28.85;13.05;;;15.50;99.90;;;14.30;100.00;100833.38;4997845;28;20486;-76
2021/09/25 05:05:00;;;;;;;31.85;12.82;;;15.50;99.90;;;14.30;100.00;100838.66;5008233;28;20496;-76
2021/09/25 05:07:26;;;;;;;29.15;13.88;;;15.50;99.90;;;14.32;100.00;100836.78;5002034;28;20505;-76
2021/09/25 05:09:52;;;;;;;24.90;12.65;;;15.50;99.90;;;14.32;100.00;100831.47;5008138;28;20022;-76
2021/09/25 05:12:18;;;;;;;31.40;13.32;;;15.50;99.90;;;14.30;100.00;100838.66;5010059;28;20033;-76
2021/09/25 05:14:44;;;;;;;30.48;13.80;;;15.50;99.90;;;14.30;100.00;100838.66;5009118;28;20111;-76
2021/09/25 05:17:10;;;;;;;26.65;12.52;;;15.50;99.90;;;14.32;100.00;100842.06;5009655;28;20353;-76
2021/09/25 05:19:36;;;;;;;25.50;13.05;;;15.50;99.90;;;14.33;100.00;100849.91;5007168;28;20048;-76
2021/09/25 05:22:02;;;;;;;29.83;13.50;;;15.50;99.90;;;14.38;100.00;100852.25;5010825;28;20493;-76
2021/09/25 05:24:28;;;;;;;22.02;12.10;;;15.60;99.90;;;14.40;100.00;100838.94;5008070;28;20029;-76
2021/09/25 05:26:55;;;;;;;23.83;12.02;;;15.60;99.90;;;14.42;100.00;100832.59;4994808;28;20028;-76
2021/09/25 05:29:23;;;;;;;22.45;12.68;;;15.60;99.90;;;14.46;100.00;100828.81;5008639;28;20059;-76
2021/09/25 05:31:49;;;;;;;24.80;12.35;;;15.70;99.90;;;14.49;100.00;100828.66;4979727;28;20404;-76
2021/09/25 05:34:15;;;;;;;24.98;12.48;;;15.70;99.90;;;14.53;100.00;100831.94;4999871;28;20042;-76
2021/09/25 05:36:41;;;;;;;22.13;12.52;;;15.70;99.90;;;14.52;100.00;100844.34;4997289;28;20038;-77
2021/09/25 05:39:10;;;;;;;30.08;13.55;;;15.70;99.90;;;14.51;100.00;100842.66;5001822;28;20107;-76
2021/09/25 05:41:36;;;;;;;21.63;12.45;;;15.70;99.90;;;14.55;100.00;100849.47;4997759;28;20423;-76
2021/09/25 05:44:02;;;;;;;30.58;14.23;;;15.70;99.90;;;14.56;100.00;100850.34;4982991;28;20018;-76
2021/09/25 05:46:28;;;;;;;23.02;13.48;;;15.70;99.90;;;14.56;100.00;100850.34;4985282;28;20017;-76
2021/09/25 05:48:54;;;;;;;34.78;13.82;;;15.70;99.90;;;14.55;100.00;100857.41;4994480;28;20021;-76
2021/09/25 05:51:20;;;;;;;30.70;13.90;;;15.70;99.90;;;14.56;100.00;100853.00;4998614;28;20037;-76
2021/09/25 05:53:47;;;;;;;24.92;13.48;;;15.70;99.90;;;14.57;100.00;100858.19;4993623;28;20449;-76
2021/09/25 05:56:13;;;;;;;22.30;13.48;;;15.70;99.90;;;14.55;100.00;100849.47;4995605;28;20050;-76
2021/09/25 05:58:41;;;;;;;29.80;13.82;;;15.80;99.90;;;14.58;100.00;100851.09;4991998;28;20152;-76
2021/09/25 06:01:07;;;;;;;28.73;14.18;;;15.80;99.90;;;14.59;100.00;100859.91;5000083;28;20083;-76
2021/09/25 06:03:33;;;;;;;25.58;14.50;;;15.80;99.90;;;14.59;100.00;100863.41;5002999;28;20076;-76
2021/09/25 06:06:00;;;;;;;28.27;14.73;;;15.70;99.90;;;14.60;100.00;100872.19;4998258;28;20025;-76
2021/09/25 06:08:25;;;;;;;28.92;13.15;;;15.80;99.90;;;14.65;100.00;100881.56;5033068;28;20075;-76
2021/09/25 06:10:54;;;;;;;27.58;13.15;;;15.80;99.90;;;14.66;100.00;100864.72;4990228;28;20026;-76
2021/09/25 06:13:20;;;;;;;25.83;13.65;;;15.80;99.90;;;14.70;100.00;100865.38;4984004;28;20029;-76
2021/09/25 06:15:46;;;;;;;25.73;12.93;;;15.90;99.90;;;14.73;100.00;100863.41;5009332;28;20025;-76
2021/09/25 06:18:13;;;;;;;22.42;12.85;;;15.90;99.90;;;14.81;100.00;100860.25;5007460;28;20048;-76
2021/09/25 06:20:40;;;;;;;25.10;12.93;;;16.00;99.90;;;14.85;100.00;100864.44;4991857;28;20104;-76
2021/09/25 06:23:07;;;;;;;29.20;12.75;;;16.00;99.90;;;14.90;100.00;100861.50;5023408;28;21018;-76
2021/09/25 06:25:33;;;;;;;23.95;11.93;;;16.10;99.90;;;14.96;100.00;100864.59;4982505;28;20168;-76
2021/09/25 06:28:00;;;;;;;24.65;12.43;;;16.10;99.90;;;15.02;100.00;100865.19;5001922;28;20599;-76
2021/09/25 06:30:26;;;;;;;22.13;11.77;;;16.20;99.90;;;15.06;100.00;100859.59;5030359;28;20061;-76
2021/09/25 06:32:52;;;;;;;26.30;13.25;;;16.20;99.90;;;15.11;100.00;100869.91;5002244;28;20022;-76
2021/09/25 06:35:18;;;;;;;27.63;12.95;;;16.20;99.90;;;15.10;100.00;100886.78;4999088;28;20026;-76
2021/09/25 06:37:45;;;;;;;27.60;12.90;;;16.30;99.90;;;15.12;100.00;100887.53;4993925;28;20049;-77
2021/09/25 06:40:12;;;;;;;19.08;11.18;;;16.30;99.90;;;15.13;100.00;100887.41;5000365;28;20033;-76
2021/09/25 06:42:40;;;;;;;24.48;11.85;;;16.30;99.90;;;15.18;100.00;100885.34;5004691;28;20026;-77
2021/09/25 06:45:07;;;;;;;20.17;11.27;;;16.30;99.90;;;15.25;100.00;100875.19;5003053;28;20040;-77
2021/09/25 06:47:33;;;;;;;22.15;11.40;;;16.40;99.90;;;15.26;100.00;100871.56;4992647;28;20149;-76
2021/09/25 06:50:01;;;;;;;20.55;10.90;;;16.40;99.90;;;15.25;100.00;100874.31;5003026;28;20046;-76
2021/09/25 06:52:29;;;;;;;21.30;11.05;;;16.40;99.90;;;15.23;100.00;100878.91;5001135;28;20037;-77
2021/09/25 06:54:56;;;;;;;18.35;10.15;;;16.30;99.90;;;15.20;100.00;100881.72;5004583;28;20039;-77
2021/09/25 06:57:22;;;;;;;23.60;11.60;;;16.30;99.90;;;15.12;100.00;100937.94;4999749;28;20419;-77
2021/09/25 06:59:48;;;;;;;24.00;11.13;;;16.30;99.90;;;15.09;100.00;101219.22;4989311;28;20052;-77
2021/09/25 07:02:14;;;;;;;18.63;11.15;;;16.20;99.90;;;15.09;100.00;101187.41;4988248;28;20088;-77
2021/09/25 07:04:40;;;;;;;22.42;10.90;;;16.20;99.90;;;15.05;100.00;101160.19;4991963;28;20033;-77
2021/09/25 07:07:06;;;;;;;22.70;11.88;;;16.20;99.90;;;15.04;100.00;101147.88;4995495;28;20501;-77
2021/09/25 07:09:32;;;;;;;17.77;11.55;;;16.20;99.90;;;15.08;100.00;101111.44;4993489;28;20511;-76
2021/09/25 07:11:58;;;;;;;20.42;11.27;;;16.30;99.90;;;15.13;100.00;101104.06;5007916;28;20032;-77
2021/09/25 07:14:24;;;;;;;26.48;11.10;;;16.30;99.90;;;15.14;100.00;101082.75;5014332;28;20038;-77
2021/09/25 07:16:50;;;;;;;22.55;11.32;;;16.30;99.90;;;15.17;100.00;101076.41;5002418;28;20042;-77
2021/09/25 07:19:17;;;;;;;28.05;11.52;;;16.30;99.90;;;15.20;100.00;101068.25;4993584;28;20030;-77
2021/09/25 07:21:43;;;;;;;20.42;11.65;;;16.40;99.90;;;15.24;100.00;101098.09;5013455;28;20065;-77
2021/09/25 07:24:09;;;;;;;17.08;10.82;;;16.40;99.90;;;15.24;100.00;101085.69;4993413;28;23655;-77
2021/09/25 07:26:37;;;;;;;22.17;11.73;;;16.50;99.90;;;15.30;100.00;101084.47;5007719;28;20135;-77
2021/09/25 07:29:05;;;;;;;22.10;10.73;;;16.50;99.90;;;15.30;100.00;101106.53;5010428;28;20500;-77
2021/09/25 07:31:31;;;;;;;17.48;10.95;;;16.60;99.90;;;15.34;100.00;101108.06;5002294;28;20056;-77
2021/09/25 07:33:57;;;;;;;20.30;10.75;;;16.50;99.90;;;15.41;100.00;101095.28;4980469;28;20076;-77
2021/09/25 07:36:26;;;;;;;22.10;11.00;;;16.70;99.90;;;15.53;100.00;101091.03;4996142;28;20034;-76
2021/09/25 07:38:53;;;;;;;22.58;11.10;;;16.80;99.90;;;15.71;100.00;101092.56;5002532;28;20046;-76
2021/09/25 07:41:19;;;;;;;22.08;10.60;;;16.80;99.90;;;15.76;100.00;101095.78;5013308;28;20281;-76
2021/09/25 07:43:45;;;;;;;21.30;10.63;;;16.90;99.90;;;15.79;100.00;101097.41;5010833;28;20117;-77
2021/09/25 07:46:11;;;;;;;17.40;10.50;;;16.90;99.90;;;15.87;100.00;101100.41;4994723;28;20457;-77
2021/09/25 07:48:37;;;;;;;20.58;10.35;;;17.00;99.90;;;15.92;100.00;101093.03;5010948;28;20025;-76
2021/09/25 07:51:03;;;;;;;20.02;10.15;;;17.00;99.90;;;15.99;100.00;101099.66;4992190;28;20026;-79
2021/09/25 07:53:29;;;;;;;21.63;11.07;;;17.10;99.90;;;16.05;100.00;101106.38;5003075;28;20041;-77
2021/09/25 07:55:58;;;;;;;22.17;10.40;;;17.10;99.90;;;16.09;100.00;101094.63;5010006;28;20049;-77
2021/09/25 07:58:24;;;;;;;17.10;9.77;;;17.20;99.90;;;16.29;100.00;101116.41;5012110;28;20030;-77
2021/09/25 08:00:51;;;;;;;24.05;10.43;;;17.30;99.90;;;16.39;100.00;101115.72;5003289;28;20048;-77
2021/09/25 08:03:20;;;;;;;18.92;9.73;;;17.40;99.90;;;16.45;100.00;101122.41;4976612;28;20396;-77
2021/09/25 08:05:46;;;;;;;18.60;9.82;;;17.50;99.90;;;16.53;100.00;101120.13;4993959;28;20038;-77
2021/09/25 08:08:13;;;;;;;21.10;10.32;;;17.70;99.90;;;16.72;100.00;101133.06;5011393;28;20018;-77
2021/09/25 08:10:39;;;;;;;24.20;10.43;;;17.80;99.90;;;16.79;100.00;101123.72;5004162;28;20018;-77
2021/09/25 08:13:05;;;;;;;21.02;9.63;;;17.70;99.90;;;16.72;100.00;101105.63;4997556;28;20104;-77
2021/09/25 08:15:31;;;;;;;19.77;10.25;;;17.80;99.90;;;16.76;100.00;101109.75;5000382;28;20026;-77
2021/09/25 08:17:57;;;;;;;18.20;10.50;;;17.60;99.90;;;16.74;100.00;101109.03;4984105;28;20465;-78
2021/09/25 08:20:25;;;;;;;18.65;9.18;;;17.70;99.90;;;16.66;100.00;101119.31;5023147;28;20481;-77
2021/09/25 08:22:51;;;;;;;18.25;9.73;;;17.60;99.90;;;16.51;100.00;101100.75;4999219;28;20151;-77
2021/09/25 08:25:20;;;;;;;17.80;9.23;;;17.60;99.90;;;16.62;100.00;101129.28;4977754;28;20583;-77
2021/09/25 08:27:47;;;;;;;21.70;9.52;;;17.80;99.90;;;16.78;100.00;101145.06;5017329;28;20120;-77
2021/09/25 08:30:14;;;;;;;18.65;9.85;;;18.00;99.90;;;17.01;100.00;101133.78;5001145;28;20029;-77
2021/09/25 08:32:40;;;;;;;17.55;9.07;;;18.00;99.90;;;17.04;100.00;101116.81;5003828;28;20428;-77
2021/09/25 08:35:08;;;;;;;20.58;9.75;;;18.00;99.90;;;17.00;100.00;101102.84;4981172;28;20152;-77
2021/09/25 08:37:39;;;;;;;19.73;8.30;;;18.20;99.90;;;17.15;100.00;101155.97;4978130;28;20045;-77
2021/09/25 08:40:11;;;;;;;20.42;8.85;;;18.30;99.90;;;17.27;100.00;101157.78;4986001;28;20099;-77
2021/09/25 08:42:38;;;;;;;23.13;8.98;;;18.30;99.90;;;17.18;100.00;101137.13;5018580;28;20661;-77
2021/09/25 08:45:07;;;;;;;16.75;8.05;;;18.30;99.90;;;17.26;100.00;101188.03;5000478;28;20037;-77
2021/09/25 08:47:35;;;;;;;17.73;7.72;;;18.30;99.90;;;17.24;100.00;101181.97;5005756;28;20032;-78
2021/09/25 08:50:03;;;;;;;18.40;8.18;;;18.30;99.90;;;17.19;100.00;101173.41;4994155;28;20036;-77
2021/09/25 08:52:29;;;;;;;16.65;8.27;;;18.20;99.90;;;17.12;100.00;101159.69;4978811;28;20038;-78
2021/09/25 08:54:55;;;;;;;18.83;8.70;;;18.10;99.90;;;16.95;100.00;101136.88;4986529;28;20052;-77
2021/09/25 08:57:21;;;;;;;16.75;8.10;;;17.90;99.90;;;16.84;100.00;101144.72;5003244;28;20551;-77
2021/09/25 08:59:47;;;;;;;14.98;7.80;;;17.90;99.90;;;16.79;100.00;101166.25;4980354;28;20033;-78
2021/09/25 09:02:24;;;;;;;15.18;7.28;;;17.90;99.90;;;16.76;100.00;101154.97;4967161;28;20037;-78
2021/09/25 09:04:55;;;;;;;14.00;7.88;;;17.80;99.90;;;16.71;100.00;101149.94;4972097;28;20038;-78
2021/09/25 09:07:29;;;;;;;12.43;7.40;;;17.80;99.90;;;16.74;100.00;101135.63;4958913;28;20042;-77
2021/09/25 09:10:08;;;;;;;16.52;8.43;;;17.80;99.90;;;16.85;100.00;101141.13;4955183;28;20056;-77
2021/09/25 09:13:11;;;;;;;14.80;8.50;;;18.10;99.90;;;17.35;100.00;101158.13;4960022;28;20116;-77
2021/09/25 09:16:26;;;;;;;11.68;6.72;;;18.50;99.90;;;17.78;100.00;101179.13;4963317;28;20697;-77
2021/09/25 09:19:47;;;;;;;20.42;6.72;;;18.90;99.90;;;18.19;98.91;101179.88;4969681;28;20048;-78
2021/09/25 09:22:39;;;;;;;12.38;7.10;;;19.10;99.90;;;18.38;96.36;101176.72;4955395;28;20033;-78
2021/09/25 09:25:36;;;;;;;13.85;6.47;;;19.20;99.90;;;18.34;94.49;101156.59;4979087;28;20037;-78
2021/09/25 09:28:39;;;;;;;13.70;5.95;;;19.60;99.90;;;19.00;93.85;101208.63;4975556;28;20631;-78
2021/09/25 09:31:07;;;;;;;11.75;5.95;;;20.50;99.90;;;19.94;87.62;101249.63;4983108;28;20017;-77
2021/09/25 09:34:16;;;;;;;13.07;5.30;;;20.90;99.90;;;20.34;85.23;101269.69;4991100;28;20523;-78
2021/09/25 09:36:43;;;;;;;11.98;5.18;;;20.70;99.90;;;19.53;87.39;101576.81;4961945;28;20390;-78
2021/09/25 09:39:20;;;;;;;10.80;5.53;;;20.40;99.90;;;19.13;91.58;101235.25;4955490;28;20051;-78
2021/09/25 09:42:13;;;;;;;10.32;5.22;;;19.80;99.90;;;18.21;91.78;101176.13;4954588;28;20054;-78
2021/09/25 09:45:17;;;;;;;10.95;5.22;;;19.10;99.90;;;17.67;96.08;101163.06;4978365;28;20031;-78
2021/09/25 09:47:46;;;;;;;16.48;6.35;;;18.40;99.90;;;17.12;98.88;101125.09;4986748;28;20108;-78
2021/09/25 09:50:17;;;;;;;9.48;5.85;;;18.00;99.90;;;16.82;99.00;101109.38;4952073;28;20041;-77
2021/09/25 09:52:45;;;;;;;14.75;5.40;;;17.90;99.90;;;16.82;100.00;101120.03;4964736;28;20033;-77
2021/09/25 09:55:37;;;;;;;13.88;5.28;;;17.90;99.90;;;16.88;100.00;101146.22;4956618;28;20469;-78
2021/09/25 09:58:07;;;;;;;11.05;5.47;;;18.00;99.90;;;17.04;100.00;101139.88;4983247;28;20052;-77
2021/09/25 10:00:39;;;;;;;10.82;6.00;;;18.20;99.90;;;17.31;100.00;101145.97;4950673;28;20057;-78